createdAt,value
2023-02-01T00:00:31.795Z,98631.31
2023-02-01T00:02:58.517Z,98631.13
2023-02-01T00:05:25.287Z,98635.38
2023-02-01T00:07:52.158Z,98635.28
2023-02-01T00:10:19.059Z,98639.53
2023-02-01T00:12:46.618Z,98646.41
2023-02-01T00:15:13.428Z,98637.03
2023-02-01T00:17:40.207Z,98648.31
2023-02-01T00:20:07.431Z,98630.22
2023-02-01T00:22:34.179Z,98643.81
2023-02-01T00:25:00.991Z,98637.72
2023-02-01T00:27:27.979Z,98633.47
2023-02-01T00:29:57.717Z,98653.41
2023-02-01T00:32:24.662Z,98656.16
2023-02-01T00:34:51.459Z,98657.16
2023-02-01T00:37:19.176Z,98637.34
2023-02-01T00:39:45.901Z,98623.56
2023-02-01T00:42:12.698Z,98620.13
2023-02-01T00:44:39.481Z,98639.00
2023-02-01T00:47:06.268Z,98645.13
2023-02-01T00:49:33.598Z,98626.38
2023-02-01T00:52:00.398Z,98631.50
2023-02-01T00:54:27.116Z,98655.66
2023-02-01T00:56:53.891Z,98647.88
2023-02-01T00:59:20.604Z,98654.78
2023-02-01T01:01:47.459Z,98655.66
2023-02-01T01:04:14.202Z,98650.47
2023-02-01T01:06:40.904Z,98620.50
2023-02-01T01:09:08.732Z,98650.44
2023-02-01T01:11:38.390Z,98636.56
2023-02-01T01:14:08.468Z,98648.69
2023-02-01T01:16:36.428Z,98646.22
2023-02-01T01:19:03.921Z,98645.44
2023-02-01T01:21:31.313Z,98630.09
2023-02-01T01:23:58.409Z,98648.16
2023-02-01T01:26:28.362Z,98634.34
2023-02-01T01:29:00.166Z,98622.19
2023-02-01T01:31:28.554Z,98613.53
2023-02-01T01:33:57.895Z,98598.06
2023-02-01T01:36:26.376Z,98597.16
2023-02-01T01:38:53.274Z,98554.31
2023-02-01T01:41:30.156Z,98601.53
2023-02-01T01:44:06.080Z,98572.03
2023-02-01T01:46:36.541Z,98579.78
2023-02-01T01:49:12.857Z,98575.50
2023-02-01T01:51:45.528Z,98566.81
2023-02-01T01:54:18.361Z,98555.44
2023-02-01T01:56:50.131Z,98556.31
2023-02-01T01:59:17.396Z,98542.63
2023-02-01T02:01:45.057Z,98490.22
2023-02-01T02:04:12.169Z,98551.13
2023-02-01T02:07:02.677Z,98565.03
2023-02-01T02:09:29.547Z,98558.16
2023-02-01T02:11:56.261Z,98553.78
2023-02-01T02:14:24.917Z,98556.38
2023-02-01T02:16:51.629Z,98566.81
2023-02-01T02:20:13.114Z,98546.84
2023-02-01T02:23:07.655Z,98544.34
2023-02-01T02:26:02.255Z,98547.94
2023-02-01T02:28:53.803Z,98536.66
2023-02-01T02:31:29.712Z,98552.22
2023-02-01T02:34:16.963Z,98547.16
2023-02-01T02:36:49.653Z,98558.66
2023-02-01T02:39:34.622Z,98549.16
2023-02-01T02:42:39.909Z,98466.78
2023-02-01T02:45:49.665Z,98535.16
2023-02-01T02:48:22.508Z,98546.38
2023-02-01T02:51:24.160Z,98544.72
2023-02-01T02:54:27.229Z,98534.34
2023-02-01T02:57:14.552Z,98540.34
2023-02-01T03:00:02.650Z,98537.78
2023-02-01T03:02:51.526Z,98557.63
2023-02-01T03:05:18.544Z,98514.69
2023-02-01T03:07:52.905Z,98542.13
2023-02-01T03:10:41.486Z,98554.19
2023-02-01T03:13:28.755Z,98569.03
2023-02-01T03:16:10.853Z,98554.34
2023-02-01T03:18:49.484Z,98568.19
2023-02-01T03:21:57.993Z,98566.41
2023-02-01T03:24:36.239Z,98569.91
2023-02-01T03:27:32.143Z,98563.94
2023-02-01T03:30:08.860Z,98575.06
2023-02-01T03:32:57.776Z,98558.59
2023-02-01T03:35:45.728Z,98549.94
2023-02-01T03:38:37.756Z,98579.38
2023-02-01T03:41:28.197Z,98559.47
2023-02-01T03:44:16.613Z,98550.06
2023-02-01T03:47:04.369Z,98578.44
2023-02-01T03:49:36.777Z,98564.75
2023-02-01T03:52:08.119Z,98575.03
2023-02-01T03:54:36.233Z,98590.66
2023-02-01T03:57:09.431Z,98582.03
2023-02-01T03:59:41.073Z,98567.44
2023-02-01T04:02:08.121Z,98573.47
2023-02-01T04:04:36.007Z,98582.28
2023-02-01T04:07:03.973Z,98545.91
2023-02-01T04:09:30.782Z,98569.03
2023-02-01T04:11:57.539Z,98537.19
2023-02-01T04:14:24.373Z,98558.56
2023-02-01T04:16:51.628Z,98554.44
2023-02-01T04:19:18.496Z,98587.34
2023-02-01T04:21:45.347Z,98576.06
2023-02-01T04:24:12.253Z,98563.91
2023-02-01T04:26:39.176Z,98575.97
2023-02-01T04:29:05.965Z,98509.06
2023-02-01T04:31:33.040Z,98574.25
2023-02-01T04:34:00.176Z,98582.00
2023-02-01T04:36:27.263Z,98583.88
2023-02-01T04:38:54.079Z,98580.44
2023-02-01T04:41:21.409Z,98586.56
2023-02-01T04:43:49.296Z,98581.38
2023-02-01T04:46:16.426Z,98581.38
2023-02-01T04:48:43.471Z,98579.69
2023-02-01T04:51:11.183Z,98556.47
2023-02-01T04:53:38.137Z,98585.78
2023-02-01T04:56:05.173Z,98572.94
2023-02-01T04:58:31.885Z,98589.25
2023-02-01T05:00:58.729Z,98575.50
2023-02-01T05:03:25.483Z,98585.00
2023-02-01T05:05:54.590Z,98591.06
2023-02-01T05:08:23.429Z,98526.72
2023-02-01T05:10:50.368Z,98579.91
2023-02-01T05:13:35.671Z,98585.97
2023-02-01T05:16:02.856Z,98579.97
2023-02-01T05:18:29.932Z,98585.16
2023-02-01T05:20:56.677Z,98577.44
2023-02-01T05:23:23.489Z,98584.34
2023-02-01T05:25:50.230Z,98580.88
2023-02-01T05:28:17.276Z,98583.47
2023-02-01T05:30:44.240Z,98575.69
2023-02-01T05:33:11.025Z,98550.75
2023-02-01T05:35:37.760Z,98573.97
2023-02-01T05:38:04.493Z,98568.81
2023-02-01T05:40:31.172Z,98564.47
2023-02-01T05:42:57.929Z,98561.81
2023-02-01T05:45:24.724Z,98564.44
2023-02-01T05:47:51.507Z,98549.81
2023-02-01T05:50:18.682Z,98559.22
2023-02-01T05:52:45.670Z,98570.50
2023-02-01T05:55:12.388Z,98591.28
2023-02-01T05:57:39.194Z,98540.56
2023-02-01T06:00:06.917Z,98592.22
2023-02-01T06:02:39.294Z,98519.88
2023-02-01T06:05:07.526Z,98544.75
2023-02-01T06:07:34.405Z,98549.06
2023-02-01T06:10:01.280Z,98577.53
2023-02-01T06:12:29.160Z,98569.00
2023-02-01T06:14:55.865Z,98546.50
2023-02-01T06:17:22.712Z,98556.78
2023-02-01T06:19:49.496Z,98547.56
2023-02-01T06:22:16.323Z,98534.47
2023-02-01T06:24:44.303Z,98557.63
2023-02-01T06:27:11.099Z,98548.06
2023-02-01T06:29:37.779Z,98537.63
2023-02-01T06:32:04.566Z,98548.84
2023-02-01T06:34:31.394Z,98560.16
2023-02-01T06:36:58.113Z,98546.44
2023-02-01T06:39:24.925Z,98562.69
2023-02-01T06:41:51.791Z,98549.72
2023-02-01T06:44:18.976Z,98548.78
2023-02-01T06:46:45.763Z,98554.97
2023-02-01T06:49:12.721Z,98534.16
2023-02-01T06:51:39.458Z,98485.94
2023-02-01T06:54:06.209Z,98589.16
2023-02-01T06:56:32.941Z,98554.75
2023-02-01T06:58:59.660Z,98564.59
2023-02-01T07:01:27.285Z,98564.47
2023-02-01T07:03:53.967Z,98601.69
2023-02-01T07:06:21.074Z,98580.09
2023-02-01T07:08:47.961Z,98593.41
2023-02-01T07:11:16.582Z,98604.09
2023-02-01T07:13:43.630Z,98592.63
2023-02-01T07:16:16.511Z,98608.31
2023-02-01T07:18:43.779Z,98570.25
2023-02-01T07:21:10.428Z,98593.38
2023-02-01T07:23:37.686Z,98610.56
2023-02-01T07:26:05.551Z,98610.66
2023-02-01T07:28:35.134Z,98562.78
2023-02-01T07:31:10.373Z,98615.31
2023-02-01T07:33:37.819Z,98613.78
2023-02-01T07:36:07.261Z,98600.75
2023-02-01T07:38:34.081Z,98547.97
2023-02-01T07:41:02.316Z,98629.69
2023-02-01T07:43:29.668Z,98610.09
2023-02-01T07:45:57.463Z,98600.91
2023-02-01T07:48:25.731Z,98588.38
2023-02-01T07:51:06.463Z,98607.53
2023-02-01T07:53:34.947Z,98623.97
2023-02-01T07:56:02.550Z,98621.25
2023-02-01T07:58:29.560Z,98617.31
2023-02-01T08:01:15.216Z,98608.50
2023-02-01T08:03:42.089Z,98622.06
2023-02-01T08:06:08.909Z,98617.03
2023-02-01T08:08:35.719Z,98638.13
2023-02-01T08:11:04.851Z,98650.22
2023-02-01T08:13:31.949Z,98626.75
2023-02-01T08:16:03.189Z,98620.78
2023-02-01T08:18:30.764Z,98676.97
2023-02-01T08:20:58.004Z,98661.22
2023-02-01T08:23:25.476Z,98685.91
2023-02-01T08:25:52.183Z,98682.38
2023-02-01T08:28:18.926Z,98679.22
2023-02-01T08:30:46.178Z,98649.22
2023-02-01T08:33:12.801Z,98659.75
2023-02-01T08:35:43.610Z,98608.44
2023-02-01T08:38:11.452Z,98652.19
2023-02-01T08:40:38.135Z,98647.50
2023-02-01T08:43:04.923Z,98626.78
2023-02-01T08:45:31.812Z,98657.66
2023-02-01T08:47:58.771Z,98648.09
2023-02-01T08:50:26.697Z,98657.53
2023-02-01T08:52:54.696Z,98633.38
2023-02-01T08:55:21.815Z,98654.59
2023-02-01T08:57:48.859Z,98664.19
2023-02-01T09:00:18.201Z,98655.56
2023-02-01T09:02:45.408Z,98663.38
2023-02-01T09:05:12.412Z,98659.53
2023-02-01T09:07:39.892Z,98601.31
2023-02-01T09:10:07.374Z,98671.47
2023-02-01T09:12:35.378Z,98676.06
2023-02-01T09:15:02.618Z,98666.91
2023-02-01T09:17:30.835Z,98648.28
2023-02-01T09:19:57.832Z,98655.94
2023-02-01T09:22:25.311Z,98648.56
2023-02-01T09:24:55.085Z,98676.34
2023-02-01T09:27:22.516Z,98664.88
2023-02-01T09:29:53.803Z,98654.91
2023-02-01T09:32:22.576Z,98645.97
2023-02-01T09:34:50.637Z,98669.09
2023-02-01T09:37:17.387Z,98627.34
2023-02-01T09:39:44.509Z,98625.91
2023-02-01T09:42:26.205Z,98624.94
2023-02-01T09:45:04.459Z,98644.16
2023-02-01T09:47:32.707Z,98634.53
2023-02-01T09:50:07.602Z,98644.50
2023-02-01T09:52:41.694Z,98611.97
2023-02-01T09:55:21.273Z,98621.66
2023-02-01T09:57:58.621Z,98637.13
2023-02-01T10:00:29.850Z,98629.59
2023-02-01T10:02:57.870Z,98641.16
2023-02-01T10:05:42.755Z,98620.00
2023-02-01T10:08:31.708Z,98618.88
2023-02-01T10:11:49.343Z,98616.38
2023-02-01T10:14:22.397Z,98619.72
2023-02-01T10:16:55.844Z,98620.69
2023-02-01T10:19:49.737Z,98610.66
2023-02-01T10:23:04.999Z,98593.84
2023-02-01T10:25:32.631Z,98575.47
2023-02-01T10:28:02.814Z,98588.22
2023-02-01T10:30:38.834Z,98574.59
2023-02-01T10:33:28.664Z,98590.47
2023-02-01T10:36:31.138Z,98589.00
2023-02-01T10:39:00.230Z,98585.47
2023-02-01T10:41:34.119Z,98576.47
2023-02-01T10:44:03.352Z,98573.88
2023-02-01T10:46:31.997Z,98562.81
2023-02-01T10:49:03.336Z,98565.88
2023-02-01T10:51:36.139Z,98559.41
2023-02-01T10:54:17.716Z,98550.16
2023-02-01T10:56:48.794Z,98550.63
2023-02-01T10:59:21.543Z,98541.94
2023-02-01T11:01:50.143Z,98517.28
2023-02-01T11:04:21.189Z,98504.97
2023-02-01T11:06:52.134Z,98521.94
2023-02-01T11:09:25.538Z,98523.25
2023-02-01T11:11:52.430Z,98522.44
2023-02-01T11:14:26.984Z,98525.09
2023-02-01T11:17:02.310Z,98497.53
2023-02-01T11:19:29.852Z,98507.78
2023-02-01T11:22:00.372Z,98507.25
2023-02-01T11:24:34.451Z,98491.56
2023-02-01T11:27:07.186Z,98501.91
2023-02-01T11:29:40.657Z,98502.81
2023-02-01T11:32:11.035Z,98508.34
2023-02-01T11:34:50.371Z,98495.53
2023-02-01T11:37:26.788Z,98474.06
2023-02-01T11:40:00.367Z,98505.59
2023-02-01T11:42:28.944Z,98492.97
2023-02-01T11:45:26.581Z,98484.69
2023-02-01T11:47:54.776Z,98479.00
2023-02-01T11:50:33.666Z,98472.28
2023-02-01T11:53:26.381Z,98464.03
2023-02-01T11:56:11.018Z,98464.56
2023-02-01T11:59:00.304Z,98436.84
2023-02-01T12:01:57.782Z,98443.31
2023-02-01T12:04:28.058Z,98451.19
2023-02-01T12:07:05.078Z,98444.94
2023-02-01T12:09:49.814Z,98441.16
2023-02-01T12:12:50.866Z,98445.16
2023-02-01T12:15:36.526Z,98415.38
2023-02-01T12:18:25.049Z,98434.31
2023-02-01T12:20:57.969Z,98438.19
2023-02-01T12:23:30.694Z,98435.16
2023-02-01T12:26:00.802Z,98431.44
2023-02-01T12:29:09.653Z,98399.13
2023-02-01T12:32:06.982Z,98428.91
2023-02-01T12:34:49.360Z,98364.16
2023-02-01T12:37:57.599Z,98417.50
2023-02-01T12:40:51.578Z,98406.28
2023-02-01T12:43:48.617Z,98412.44
2023-02-01T12:46:27.041Z,98407.16
2023-02-01T12:49:09.722Z,98417.41
2023-02-01T12:51:40.247Z,98390.69
2023-02-01T12:54:16.222Z,98411.13
2023-02-01T12:56:56.404Z,98421.78
2023-02-01T12:59:36.715Z,98402.78
2023-02-01T13:02:25.235Z,98414.88
2023-02-01T13:05:12.584Z,98424.78
2023-02-01T13:08:01.348Z,98407.09
2023-02-01T13:10:51.557Z,98415.91
2023-02-01T13:13:18.597Z,98422.69
2023-02-01T13:15:50.782Z,98424.53
2023-02-01T13:18:27.461Z,98414.94
2023-02-01T13:21:04.704Z,98425.97
2023-02-01T13:23:38.876Z,98408.56
2023-02-01T13:26:05.708Z,98427.50
2023-02-01T13:28:42.254Z,98421.28
2023-02-01T13:31:24.217Z,98430.38
2023-02-01T13:34:28.363Z,98425.94
2023-02-01T13:37:19.098Z,98426.44
2023-02-01T13:40:29.628Z,98418.38
2023-02-01T13:43:13.299Z,98371.56
2023-02-01T13:45:47.676Z,98407.88
2023-02-01T13:48:34.357Z,98401.09
2023-02-01T13:51:02.089Z,98416.31
2023-02-01T13:53:44.578Z,98412.47
2023-02-01T13:56:17.946Z,98418.25
2023-02-01T13:58:46.798Z,98425.91
2023-02-01T14:01:22.704Z,98421.59
2023-02-01T14:03:50.769Z,98423.88
2023-02-01T14:06:36.423Z,98420.66
2023-02-01T14:09:09.145Z,98425.09
2023-02-01T14:11:44.825Z,98436.41
2023-02-01T14:14:17.341Z,98424.00
2023-02-01T14:16:53.186Z,98426.53
2023-02-01T14:19:27.854Z,98378.03
2023-02-01T14:22:02.066Z,98429.53
2023-02-01T14:24:37.732Z,98420.09
2023-02-01T14:27:26.469Z,98421.56
2023-02-01T14:30:00.463Z,98423.38
2023-02-01T14:32:37.088Z,98439.53
2023-02-01T14:35:08.855Z,98434.63
2023-02-01T14:37:38.983Z,98428.69
2023-02-01T14:40:15.513Z,98444.53
2023-02-01T14:42:42.262Z,98449.28
2023-02-01T14:45:24.698Z,98438.41
2023-02-01T14:48:15.855Z,98446.06
2023-02-01T14:50:45.301Z,98446.44
2023-02-01T14:53:14.773Z,98441.66
2023-02-01T14:56:07.383Z,98460.66
2023-02-01T14:59:01.357Z,98454.03
2023-02-01T15:01:38.727Z,98438.78
2023-02-01T15:04:11.025Z,98465.34
2023-02-01T15:06:48.623Z,98461.13
2023-02-01T15:09:30.273Z,98465.28
2023-02-01T15:12:13.573Z,98473.75
2023-02-01T15:14:52.221Z,98462.56
2023-02-01T15:17:27.630Z,98479.50
2023-02-01T15:19:59.334Z,98479.13
2023-02-01T15:22:28.127Z,98472.66
2023-02-01T15:24:56.946Z,98467.91
2023-02-01T15:27:24.294Z,98470.72
2023-02-01T15:29:52.002Z,98495.63
2023-02-01T15:32:34.374Z,98469.00
2023-02-01T15:35:02.533Z,98474.50
2023-02-01T15:37:31.522Z,98513.88
2023-02-01T15:40:20.543Z,98519.22
2023-02-01T15:42:59.581Z,98506.56
2023-02-01T15:45:30.925Z,98504.69
2023-02-01T15:47:59.199Z,98499.78
2023-02-01T15:50:34.365Z,98522.41
2023-02-01T15:53:01.258Z,98521.63
2023-02-01T15:55:43.874Z,98500.06
2023-02-01T15:58:18.977Z,98504.03
2023-02-01T16:00:50.211Z,98498.63
2023-02-01T16:03:39.563Z,98490.56
2023-02-01T16:06:27.093Z,98465.44
2023-02-01T16:08:59.991Z,98490.38
2023-02-01T16:11:26.802Z,98518.06
2023-02-01T16:13:53.553Z,98505.19
2023-02-01T16:16:20.435Z,98524.69
2023-02-01T16:18:47.291Z,98515.50
2023-02-01T16:21:14.135Z,98531.25
2023-02-01T16:23:40.881Z,98532.69
2023-02-01T16:26:07.919Z,98536.34
2023-02-01T16:28:35.111Z,98537.56
2023-02-01T16:31:02.819Z,98545.13
2023-02-01T16:33:29.799Z,98540.00
2023-02-01T16:36:00.964Z,98538.41
2023-02-01T16:38:27.894Z,98556.59
2023-02-01T16:40:54.701Z,98524.53
2023-02-01T16:43:27.272Z,98554.81
2023-02-01T16:45:56.442Z,98548.44
2023-02-01T16:48:36.185Z,98559.81
2023-02-01T16:51:11.987Z,98556.22
2023-02-01T16:53:53.599Z,98557.13
2023-02-01T16:56:24.310Z,98555.44
2023-02-01T16:58:51.374Z,98572.41
2023-02-01T17:01:20.174Z,98564.72
2023-02-01T17:03:47.878Z,98571.88
2023-02-01T17:06:18.362Z,98581.84
2023-02-01T17:08:53.831Z,98556.97
2023-02-01T17:11:21.335Z,98570.41
2023-02-01T17:13:48.334Z,98584.25
2023-02-01T17:16:31.592Z,98574.41
2023-02-01T17:19:06.677Z,98576.72
2023-02-01T17:21:42.837Z,98557.41
2023-02-01T17:24:15.477Z,98574.88
2023-02-01T17:26:43.475Z,98578.50
2023-02-01T17:29:10.771Z,98575.88
2023-02-01T17:31:40.842Z,98576.88
2023-02-01T17:34:09.442Z,98582.09
2023-02-01T17:36:36.635Z,98575.78
2023-02-01T17:39:05.974Z,98584.03
2023-02-01T17:41:33.924Z,98572.63
2023-02-01T17:44:01.051Z,98569.84
2023-02-01T17:46:28.496Z,98570.44
2023-02-01T17:48:55.794Z,98539.28
2023-02-01T17:51:25.243Z,98564.00
2023-02-01T17:53:51.971Z,98565.28
2023-02-01T17:56:21.932Z,98552.28
2023-02-01T17:58:49.962Z,98568.94
2023-02-01T18:01:23.607Z,98547.41
2023-02-01T18:03:52.054Z,98572.91
2023-02-01T18:06:27.678Z,98572.03
2023-02-01T18:08:54.817Z,98578.81
2023-02-01T18:11:23.608Z,98580.53
2023-02-01T18:13:53.002Z,98563.16
2023-02-01T18:16:21.357Z,98572.16
2023-02-01T18:18:48.772Z,98574.50
2023-02-01T18:21:17.738Z,98577.84
2023-02-01T18:23:45.543Z,98593.41
2023-02-01T18:26:14.273Z,98535.09
2023-02-01T18:28:42.554Z,98573.47
2023-02-01T18:31:30.996Z,98573.38
2023-02-01T18:33:59.844Z,98587.31
2023-02-01T18:36:27.868Z,98579.47
2023-02-01T18:38:57.653Z,98575.94
2023-02-01T18:41:25.362Z,98577.84
2023-02-01T18:43:52.810Z,98580.56
2023-02-01T18:46:21.721Z,98575.50
2023-02-01T18:48:48.744Z,98580.25
2023-02-01T18:51:20.470Z,98566.59
2023-02-01T18:53:48.538Z,98581.75
2023-02-01T18:56:18.150Z,98581.19
2023-02-01T18:58:45.069Z,98582.75
2023-02-01T19:01:19.847Z,98527.69
2023-02-01T19:03:53.018Z,98584.44
2023-02-01T19:06:30.845Z,98574.69
2023-02-01T19:08:57.651Z,98588.06
2023-02-01T19:11:24.816Z,98588.59
2023-02-01T19:13:51.730Z,98589.69
2023-02-01T19:16:18.508Z,98586.22
2023-02-01T19:18:47.966Z,98577.34
2023-02-01T19:21:15.549Z,98584.09
2023-02-01T19:23:43.070Z,98574.78
2023-02-01T19:26:14.836Z,98586.59
2023-02-01T19:28:44.694Z,98580.94
2023-02-01T19:31:11.522Z,98580.44
2023-02-01T19:33:38.836Z,98586.47
2023-02-01T19:36:06.541Z,98590.22
2023-02-01T19:38:34.174Z,98594.94
2023-02-01T19:41:01.476Z,98556.59
2023-02-01T19:43:28.875Z,98575.28
2023-02-01T19:45:56.108Z,98600.16
2023-02-01T19:48:23.159Z,98602.88
2023-02-01T19:50:50.118Z,98598.75
2023-02-01T19:53:16.864Z,98602.22
2023-02-01T19:55:47.196Z,98592.13
2023-02-01T19:58:14.752Z,98600.09
2023-02-01T20:00:41.154Z,98600.41
2023-02-01T20:03:08.216Z,98597.22
2023-02-01T20:05:35.157Z,98601.81
2023-02-01T20:08:03.493Z,98612.13
2023-02-01T20:10:30.468Z,98596.28
2023-02-01T20:12:57.226Z,98611.59
2023-02-01T20:15:27.035Z,98618.44
2023-02-01T20:17:54.181Z,98608.38
2023-02-01T20:20:20.908Z,98589.00
2023-02-01T20:22:47.758Z,98616.44
2023-02-01T20:25:14.879Z,98601.00
2023-02-01T20:27:42.585Z,98632.13
2023-02-01T20:30:09.797Z,98637.50
2023-02-01T20:32:36.594Z,98583.22
2023-02-01T20:35:03.483Z,98635.75
2023-02-01T20:37:30.559Z,98634.38
2023-02-01T20:39:57.306Z,98634.72
2023-02-01T20:42:24.294Z,98628.03
2023-02-01T20:44:51.175Z,98633.84
2023-02-01T20:47:18.262Z,98642.28
2023-02-01T20:49:45.445Z,98647.16
2023-02-01T20:52:12.346Z,98618.97
2023-02-01T20:54:39.217Z,98634.53
2023-02-01T20:57:06.434Z,98634.94
2023-02-01T20:59:33.095Z,98636.91
2023-02-01T21:01:59.958Z,98641.78
2023-02-01T21:04:27.648Z,98639.00
2023-02-01T21:06:55.615Z,98626.16
2023-02-01T21:09:23.265Z,98616.84
2023-02-01T21:11:49.992Z,98630.44
2023-02-01T21:14:16.917Z,98604.53
2023-02-01T21:16:43.964Z,98635.94
2023-02-01T21:19:12.579Z,98635.81
2023-02-01T21:21:39.270Z,98616.66
2023-02-01T21:24:06.325Z,98625.91
2023-02-01T21:26:40.989Z,98628.78
2023-02-01T21:29:12.949Z,98633.91
2023-02-01T21:31:40.575Z,98610.75
2023-02-01T21:34:07.784Z,98612.66
2023-02-01T21:36:35.184Z,98640.78
2023-02-01T21:39:03.747Z,98638.25
2023-02-01T21:41:51.580Z,98627.44
2023-02-01T21:44:18.498Z,98627.94
2023-02-01T21:46:45.258Z,98629.09
2023-02-01T21:49:12.055Z,98628.16
2023-02-01T21:51:39.155Z,98628.16
2023-02-01T21:54:07.589Z,98626.19
2023-02-01T21:56:34.476Z,98630.50
2023-02-01T21:59:01.315Z,98616.19
2023-02-01T22:01:28.274Z,98591.25
2023-02-01T22:03:55.112Z,98619.53
2023-02-01T22:06:25.959Z,98626.38
2023-02-01T22:08:53.308Z,98628.56
2023-02-01T22:11:20.004Z,98587.59
2023-02-01T22:13:47.090Z,98618.63
2023-02-01T22:16:15.831Z,98627.25
2023-02-01T22:18:42.901Z,98601.94
2023-02-01T22:21:09.791Z,98616.78
2023-02-01T22:23:36.498Z,98612.69
2023-02-01T22:26:09.166Z,98613.03
2023-02-01T22:28:36.960Z,98610.50
2023-02-01T22:31:05.490Z,98605.31
2023-02-01T22:33:33.616Z,98601.16
2023-02-01T22:36:00.887Z,98603.94
2023-02-01T22:38:29.948Z,98595.97
2023-02-01T22:40:58.569Z,98599.19
2023-02-01T22:43:25.521Z,98585.91
2023-02-01T22:45:53.240Z,98589.38
2023-02-01T22:48:20.349Z,98579.19
2023-02-01T22:50:47.022Z,98581.34
2023-02-01T22:53:13.738Z,98560.16
2023-02-01T22:55:42.331Z,98583.59
2023-02-01T22:58:09.088Z,98572.59
2023-02-01T23:00:35.802Z,98571.94
2023-02-01T23:03:02.636Z,98572.94
2023-02-01T23:05:29.507Z,98567.84
2023-02-01T23:07:56.257Z,98567.84
2023-02-01T23:10:23.210Z,98568.78
2023-02-01T23:12:50.070Z,98540.59
2023-02-01T23:15:17.518Z,98573.31
2023-02-01T23:17:44.863Z,98568.47
2023-02-01T23:20:17.032Z,98575.50
2023-02-01T23:22:45.561Z,98559.13
2023-02-01T23:25:14.665Z,98551.19
2023-02-01T23:27:41.896Z,98540.78
2023-02-01T23:30:09.149Z,98551.81
2023-02-01T23:32:36.741Z,98547.34
2023-02-01T23:35:05.380Z,98526.66
2023-02-01T23:37:32.188Z,98551.56
2023-02-01T23:39:58.892Z,98533.47
2023-02-01T23:42:25.647Z,98543.13
2023-02-01T23:44:52.339Z,98547.34
2023-02-01T23:47:19.112Z,98550.00
2023-02-01T23:49:45.811Z,98541.38
2023-02-01T23:52:12.586Z,98531.16
2023-02-01T23:54:39.386Z,98525.16
2023-02-01T23:57:06.163Z,98524.41
2023-02-01T23:59:32.834Z,98502.84
